createdAt,value
2022-08-21T00:00:43.922Z,21.01
2022-08-21T00:01:39.957Z,21.05
2022-08-21T00:02:39.973Z,21.05
2022-08-21T00:03:39.887Z,20.90
2022-08-21T00:04:39.836Z,20.98
2022-08-21T00:05:39.792Z,21.03
2022-08-21T00:06:39.757Z,20.98
2022-08-21T00:07:39.716Z,21.01
2022-08-21T00:08:39.677Z,21.03
2022-08-21T00:09:39.660Z,20.98
2022-08-21T00:10:39.598Z,21.01
2022-08-21T00:11:39.561Z,21.01
2022-08-21T00:12:39.519Z,21.01
2022-08-21T00:13:39.499Z,21.05
2022-08-21T00:14:39.460Z,21.03
2022-08-21T00:15:39.397Z,21.08
2022-08-21T00:16:39.356Z,21.03
2022-08-21T00:17:39.315Z,21.07
2022-08-21T00:18:39.277Z,21.07
2022-08-21T00:19:39.235Z,21.08
2022-08-21T00:20:39.394Z,21.04
2022-08-21T00:21:39.156Z,21.08
2022-08-21T00:22:39.116Z,20.96
2022-08-21T00:23:39.080Z,20.95
2022-08-21T00:24:39.038Z,20.96
2022-08-21T00:25:38.998Z,20.93
2022-08-21T00:26:38.981Z,20.85
2022-08-21T00:27:38.944Z,20.83
2022-08-21T00:28:38.876Z,20.88
2022-08-21T00:29:38.831Z,20.95
2022-08-21T00:30:38.795Z,20.89
2022-08-21T00:31:38.756Z,20.92
2022-08-21T00:32:38.715Z,20.85
2022-08-21T00:33:38.690Z,20.90
2022-08-21T00:34:38.635Z,20.83
2022-08-21T00:35:38.591Z,20.88
2022-08-21T00:36:38.552Z,20.77
2022-08-21T00:37:38.511Z,20.75
2022-08-21T00:38:38.475Z,20.78
2022-08-21T00:39:38.484Z,20.77
2022-08-21T00:40:38.392Z,20.68
2022-08-21T00:41:39.027Z,20.68
2022-08-21T00:42:38.313Z,20.67
2022-08-21T00:43:38.272Z,20.67
2022-08-21T00:44:38.227Z,20.67
2022-08-21T00:45:38.201Z,20.66
2022-08-21T00:46:38.145Z,20.77
2022-08-21T00:47:38.112Z,20.67
2022-08-21T00:48:38.070Z,20.71
2022-08-21T00:49:38.035Z,20.67
2022-08-21T00:50:37.986Z,20.71
2022-08-21T00:51:38.432Z,20.68
2022-08-21T00:52:37.904Z,20.73
2022-08-21T00:53:37.865Z,20.66
2022-08-21T00:54:37.826Z,20.71
2022-08-21T00:55:37.789Z,20.73
2022-08-21T00:56:37.763Z,20.73
2022-08-21T00:57:37.704Z,20.80
2022-08-21T00:58:37.666Z,20.78
2022-08-21T00:59:37.626Z,20.74
2022-08-21T01:00:37.584Z,20.77
2022-08-21T01:01:37.582Z,20.86
2022-08-21T01:02:37.533Z,20.78
2022-08-21T01:03:37.466Z,20.78
2022-08-21T01:04:37.426Z,20.82
2022-08-21T01:05:37.383Z,20.80
2022-08-21T01:06:37.348Z,20.86
2022-08-21T01:07:37.304Z,20.83
2022-08-21T01:08:37.289Z,20.83
2022-08-21T01:09:37.224Z,20.90
2022-08-21T01:10:37.186Z,20.86
2022-08-21T01:11:37.143Z,20.88
2022-08-21T01:12:37.101Z,20.86
2022-08-21T01:13:37.064Z,20.86
2022-08-21T01:14:37.034Z,20.86
2022-08-21T01:15:36.980Z,20.85
2022-08-21T01:16:36.942Z,20.88
2022-08-21T01:17:36.907Z,20.88
2022-08-21T01:18:36.864Z,20.88
2022-08-21T01:19:36.824Z,20.88
2022-08-21T01:20:36.825Z,20.89
2022-08-21T01:21:36.739Z,20.98
2022-08-21T01:22:36.705Z,20.95
2022-08-21T01:23:36.672Z,20.90
2022-08-21T01:24:36.626Z,20.98
2022-08-21T01:25:36.587Z,21.03
2022-08-21T01:26:36.563Z,20.96
2022-08-21T01:27:36.499Z,21.01
2022-08-21T01:28:36.465Z,21.03
2022-08-21T01:29:36.425Z,21.03
2022-08-21T01:30:36.381Z,21.03
2022-08-21T01:31:36.339Z,21.05
2022-08-21T01:32:36.316Z,21.10
2022-08-21T01:33:36.259Z,21.10
2022-08-21T01:34:36.232Z,21.07
2022-08-21T01:35:36.182Z,21.01
2022-08-21T01:36:36.144Z,20.90
2022-08-21T01:37:36.126Z,21.08
2022-08-21T01:38:36.060Z,21.01
2022-08-21T01:39:36.105Z,21.01
2022-08-21T01:40:35.982Z,21.00
2022-08-21T01:41:35.950Z,21.01
2022-08-21T01:42:35.908Z,20.93
2022-08-21T01:43:39.471Z,21.03
2022-08-21T01:44:35.825Z,21.01
2022-08-21T01:45:35.781Z,21.00
2022-08-21T01:46:35.739Z,20.88
2022-08-21T01:47:35.705Z,21.01
2022-08-21T01:48:35.667Z,20.95
2022-08-21T01:49:35.630Z,21.00
2022-08-21T01:50:35.581Z,21.03
2022-08-21T01:51:35.538Z,20.95
2022-08-21T01:52:35.514Z,20.88
2022-08-21T01:53:35.463Z,20.93
2022-08-21T01:54:35.419Z,20.88
2022-08-21T01:55:35.383Z,20.98
2022-08-21T01:56:35.339Z,20.96
2022-08-21T01:57:35.293Z,21.00
2022-08-21T01:58:35.290Z,20.90
2022-08-21T01:59:35.222Z,20.95
2022-08-21T02:00:35.213Z,20.90
2022-08-21T02:01:35.141Z,20.88
2022-08-21T02:02:35.098Z,20.90
2022-08-21T02:03:35.883Z,20.89
2022-08-21T02:04:35.039Z,20.80
2022-08-21T02:05:34.981Z,20.71
2022-08-21T02:06:34.942Z,20.74
2022-08-21T02:07:34.900Z,20.77
2022-08-21T02:08:34.859Z,20.67
2022-08-21T02:09:34.819Z,20.67
2022-08-21T02:10:34.810Z,20.77
2022-08-21T02:11:34.742Z,20.67
2022-08-21T02:12:34.701Z,20.67
2022-08-21T02:13:34.657Z,20.73
2022-08-21T02:14:34.621Z,20.70
2022-08-21T02:15:34.578Z,20.67
2022-08-21T02:16:34.558Z,20.68
2022-08-21T02:17:34.496Z,20.64
2022-08-21T02:18:34.455Z,20.71
2022-08-21T02:19:40.005Z,20.56
2022-08-21T02:20:34.380Z,20.59
2022-08-21T02:21:34.364Z,20.58
2022-08-21T02:22:34.296Z,20.63
2022-08-21T02:23:34.255Z,20.64
2022-08-21T02:24:34.216Z,20.58
2022-08-21T02:25:34.179Z,20.59
2022-08-21T02:26:34.140Z,20.52
2022-08-21T02:27:34.131Z,20.50
2022-08-21T02:28:34.053Z,20.39
2022-08-21T02:29:34.015Z,20.40
2022-08-21T02:30:33.972Z,20.44
2022-08-21T02:31:33.938Z,20.40
2022-08-21T02:32:33.895Z,20.49
2022-08-21T02:33:33.873Z,20.42
2022-08-21T02:34:33.810Z,20.40
2022-08-21T02:35:33.773Z,20.40
2022-08-21T02:36:33.735Z,20.42
2022-08-21T02:37:33.689Z,20.42
2022-08-21T02:38:33.651Z,20.48
2022-08-21T02:39:33.633Z,20.49
2022-08-21T02:40:33.578Z,20.48
2022-08-21T02:41:33.531Z,20.49
2022-08-21T02:42:33.491Z,20.37
2022-08-21T02:43:33.449Z,20.40
2022-08-21T02:44:34.779Z,20.40
2022-08-21T02:45:33.380Z,20.49
2022-08-21T02:46:33.331Z,20.44
2022-08-21T02:47:33.298Z,20.42
2022-08-21T02:48:33.255Z,20.36
2022-08-21T02:49:33.229Z,20.29
2022-08-21T02:50:33.171Z,20.32
2022-08-21T02:51:33.134Z,20.11
2022-08-21T02:52:33.089Z,20.08
2022-08-21T02:53:33.048Z,20.04
2022-08-21T02:54:33.006Z,20.03
2022-08-21T02:55:32.993Z,20.03
2022-08-21T02:56:32.931Z,19.89
2022-08-21T02:57:32.883Z,19.93
2022-08-21T02:58:32.844Z,19.90
2022-08-21T02:59:32.809Z,19.90
2022-08-21T03:00:32.766Z,19.89
2022-08-21T03:01:32.817Z,19.89
2022-08-21T03:02:32.704Z,19.87
2022-08-21T03:03:32.642Z,19.90
2022-08-21T03:04:32.605Z,19.87
2022-08-21T03:05:32.565Z,19.94
2022-08-21T03:06:32.521Z,19.85
2022-08-21T03:07:32.483Z,19.92
2022-08-21T03:08:32.475Z,19.93
2022-08-21T03:09:32.401Z,19.90
2022-08-21T03:10:32.359Z,20.03
2022-08-21T03:11:32.324Z,20.10
2022-08-21T03:12:32.277Z,20.10
2022-08-21T03:13:32.246Z,20.07
2022-08-21T03:14:32.216Z,20.08
2022-08-21T03:15:32.158Z,20.17
2022-08-21T03:16:34.857Z,20.24
2022-08-21T03:17:32.076Z,20.27
2022-08-21T03:18:32.034Z,20.29
2022-08-21T03:19:31.997Z,20.30
2022-08-21T03:20:31.978Z,20.39
2022-08-21T03:21:31.916Z,20.29
2022-08-21T03:22:31.874Z,20.40
2022-08-21T03:23:32.554Z,20.34
2022-08-21T03:24:31.796Z,20.49
2022-08-21T03:25:40.525Z,20.48
2022-08-21T03:26:31.738Z,20.50
2022-08-21T03:27:31.672Z,20.53
2022-08-21T03:28:31.630Z,20.53
2022-08-21T03:29:31.594Z,20.52
2022-08-21T03:30:31.552Z,20.53
2022-08-21T03:31:31.516Z,20.55
2022-08-21T03:32:31.514Z,20.55
2022-08-21T03:33:31.427Z,20.55
2022-08-21T03:34:31.390Z,20.58
2022-08-21T03:35:31.352Z,20.59
2022-08-21T03:36:31.309Z,20.58
2022-08-21T03:37:31.270Z,20.60
2022-08-21T03:38:31.240Z,20.56
2022-08-21T03:39:31.208Z,20.60
2022-08-21T03:40:31.148Z,20.55
2022-08-21T03:41:31.106Z,20.63
2022-08-21T03:42:31.067Z,20.59
2022-08-21T03:43:32.116Z,20.58
2022-08-21T03:44:30.987Z,20.56
2022-08-21T03:45:30.959Z,20.58
2022-08-21T03:46:30.905Z,20.52
2022-08-21T03:47:30.867Z,20.55
2022-08-21T03:48:30.825Z,20.55
2022-08-21T03:49:30.806Z,20.53
2022-08-21T03:50:30.747Z,20.44
2022-08-21T03:51:30.706Z,20.52
2022-08-21T03:52:30.660Z,20.49
2022-08-21T03:53:30.645Z,20.42
2022-08-21T03:54:30.583Z,20.49
2022-08-21T03:55:30.545Z,20.44
2022-08-21T03:56:30.506Z,20.44
2022-08-21T03:57:30.465Z,20.49
2022-08-21T03:58:30.425Z,20.39
2022-08-21T03:59:30.400Z,20.42
2022-08-21T04:00:30.344Z,20.40
2022-08-21T04:01:30.357Z,20.39
2022-08-21T04:02:30.267Z,20.52
2022-08-21T04:03:30.218Z,20.40
2022-08-21T04:04:30.203Z,20.40
2022-08-21T04:05:30.143Z,20.46
2022-08-21T04:06:32.496Z,20.52
2022-08-21T04:07:30.062Z,20.46
2022-08-21T04:08:30.022Z,20.44
2022-08-21T04:09:29.978Z,20.42
2022-08-21T04:10:29.953Z,20.48
2022-08-21T04:11:29.897Z,20.39
2022-08-21T04:12:29.858Z,20.44
2022-08-21T04:13:29.824Z,20.49
2022-08-21T04:14:29.779Z,20.49
2022-08-21T04:15:29.737Z,20.44
2022-08-21T04:16:29.710Z,20.44
2022-08-21T04:17:29.656Z,20.44
2022-08-21T04:18:29.619Z,20.50
2022-08-21T04:19:29.575Z,20.40
2022-08-21T04:20:29.541Z,20.48
2022-08-21T04:21:29.497Z,20.48
2022-08-21T04:22:29.473Z,20.42
2022-08-21T04:23:29.414Z,20.50
2022-08-21T04:24:30.032Z,20.44
2022-08-21T04:25:29.338Z,20.40
2022-08-21T04:26:29.298Z,20.56
2022-08-21T04:27:29.261Z,20.40
2022-08-21T04:28:30.443Z,20.40
2022-08-21T04:29:29.172Z,20.56
2022-08-21T04:30:29.145Z,20.58
2022-08-21T04:31:29.098Z,20.58
2022-08-21T04:32:29.056Z,20.53
2022-08-21T04:33:29.013Z,20.52
2022-08-21T04:34:28.999Z,20.42
2022-08-21T04:35:28.957Z,20.42
2022-08-21T04:36:28.892Z,20.50
2022-08-21T04:37:28.858Z,20.37
2022-08-21T04:38:34.888Z,20.42
2022-08-21T04:39:29.647Z,20.49
2022-08-21T04:40:28.787Z,20.46
2022-08-21T04:41:28.695Z,20.52
2022-08-21T04:42:28.649Z,20.53
2022-08-21T04:43:28.613Z,20.53
2022-08-21T04:44:28.573Z,20.55
2022-08-21T04:45:28.545Z,20.56
2022-08-21T04:46:28.491Z,20.56
2022-08-21T04:47:50.465Z,20.56
2022-08-21T04:48:28.426Z,20.67
2022-08-21T04:49:28.371Z,20.67
2022-08-21T04:50:28.327Z,20.59
2022-08-21T04:51:28.292Z,20.56
2022-08-21T04:52:28.246Z,20.63
2022-08-21T04:53:28.211Z,20.60
2022-08-21T04:54:28.194Z,20.53
2022-08-21T04:55:28.126Z,20.59
2022-08-21T04:56:28.089Z,20.63
2022-08-21T04:57:39.720Z,20.67
2022-08-21T04:58:28.006Z,20.67
2022-08-21T04:59:27.968Z,20.66
2022-08-21T05:00:27.950Z,20.59
2022-08-21T05:01:27.967Z,20.59
2022-08-21T05:02:27.845Z,20.58
2022-08-21T05:03:27.805Z,20.52
2022-08-21T05:04:27.765Z,20.46
2022-08-21T05:05:27.724Z,20.50
2022-08-21T05:06:27.709Z,20.49
2022-08-21T05:07:41.902Z,20.44
2022-08-21T05:08:27.604Z,20.42
2022-08-21T05:09:27.564Z,20.48
2022-08-21T05:10:27.524Z,20.44
2022-08-21T05:11:27.483Z,20.40
2022-08-21T05:12:27.460Z,20.44
2022-08-21T05:13:27.404Z,20.50
2022-08-21T05:14:27.360Z,20.50
2022-08-21T05:15:27.326Z,20.36
2022-08-21T05:16:36.852Z,20.53
2022-08-21T05:17:27.257Z,20.49
2022-08-21T05:18:27.208Z,20.52
2022-08-21T05:19:27.158Z,20.44
2022-08-21T05:20:27.123Z,20.49
2022-08-21T05:21:27.079Z,20.49
2022-08-21T05:22:27.037Z,20.49
2022-08-21T05:23:27.012Z,20.42
2022-08-21T05:24:26.956Z,20.56
2022-08-21T05:25:28.181Z,20.55
2022-08-21T05:26:26.878Z,20.60
2022-08-21T05:27:26.843Z,20.64
2022-08-21T05:28:26.911Z,20.70
2022-08-21T05:29:26.773Z,20.77
2022-08-21T05:30:26.715Z,20.71
2022-08-21T05:31:26.676Z,20.73
2022-08-21T05:32:26.636Z,20.71
2022-08-21T05:33:26.598Z,20.71
2022-08-21T05:34:26.555Z,20.75
2022-08-21T05:35:26.536Z,20.73
2022-08-21T05:36:26.480Z,20.77
2022-08-21T05:37:26.434Z,20.86
2022-08-21T05:38:26.395Z,20.90
2022-08-21T05:39:26.359Z,20.90
2022-08-21T05:40:26.360Z,20.93
2022-08-21T05:41:26.297Z,20.86
2022-08-21T05:42:26.232Z,20.83
2022-08-21T05:43:26.196Z,20.98
2022-08-21T05:44:26.154Z,20.86
2022-08-21T05:45:41.870Z,20.95
2022-08-21T05:46:26.076Z,21.03
2022-08-21T05:47:26.046Z,21.03
2022-08-21T05:48:26.016Z,21.08
2022-08-21T05:49:25.951Z,21.10
2022-08-21T05:50:26.953Z,20.96
2022-08-21T05:51:25.878Z,21.07
2022-08-21T05:52:25.830Z,21.08
2022-08-21T05:53:25.788Z,21.15
2022-08-21T05:54:25.766Z,21.14
2022-08-21T05:55:25.714Z,21.20
2022-08-21T05:56:25.698Z,21.26
2022-08-21T05:57:25.632Z,21.35
2022-08-21T05:58:25.595Z,21.35
2022-08-21T05:59:25.549Z,21.40
2022-08-21T06:03:46.584Z,21.51
2022-08-21T06:04:46.529Z,21.44
2022-08-21T06:05:46.633Z,21.43
2022-08-21T06:06:46.444Z,21.44
2022-08-21T06:07:46.427Z,21.47
2022-08-21T06:08:46.365Z,21.53
2022-08-21T06:09:46.327Z,21.53
2022-08-21T06:10:46.283Z,21.53
2022-08-21T06:11:46.246Z,21.62
2022-08-21T06:12:46.203Z,21.54
2022-08-21T06:13:46.174Z,21.56
2022-08-21T06:14:46.122Z,21.53
2022-08-21T06:15:46.091Z,21.51
2022-08-21T06:16:46.045Z,21.53
2022-08-21T06:17:46.011Z,21.58
2022-08-21T06:18:45.980Z,21.63
2022-08-21T06:19:45.924Z,21.72
2022-08-21T06:20:45.881Z,21.69
2022-08-21T06:21:45.841Z,21.80
2022-08-21T06:22:45.803Z,21.83
2022-08-21T06:23:45.781Z,21.80
2022-08-21T06:24:45.766Z,21.84
2022-08-21T06:25:45.684Z,21.84
2022-08-21T06:26:45.647Z,21.80
2022-08-21T06:27:45.610Z,21.81
2022-08-21T06:28:45.567Z,21.84
2022-08-21T06:29:45.526Z,21.97
2022-08-21T06:30:45.506Z,22.01
2022-08-21T06:31:45.448Z,22.10
2022-08-21T06:32:45.413Z,22.16
2022-08-21T06:33:45.364Z,22.26
2022-08-21T06:34:45.330Z,22.33
2022-08-21T06:35:45.287Z,22.38
2022-08-21T06:36:45.264Z,22.43
2022-08-21T06:37:45.210Z,22.40
2022-08-21T06:38:50.902Z,22.59
2022-08-21T06:39:45.511Z,22.62
2022-08-21T06:40:47.242Z,22.77
2022-08-21T06:41:45.062Z,22.92
2022-08-21T06:42:45.011Z,22.88
2022-08-21T06:43:44.976Z,22.99
2022-08-21T06:44:44.940Z,22.96
2022-08-21T06:45:44.899Z,23.02
2022-08-21T06:46:44.903Z,23.01
2022-08-21T06:47:44.821Z,22.96
2022-08-21T06:48:44.785Z,22.98
2022-08-21T06:49:44.738Z,22.99
2022-08-21T06:50:44.705Z,22.98
2022-08-21T06:51:44.685Z,22.96
2022-08-21T06:52:44.748Z,22.92
2022-08-21T06:53:44.657Z,22.95
2022-08-21T06:54:44.557Z,22.92
2022-08-21T06:55:44.516Z,22.98
2022-08-21T06:56:44.471Z,23.01
2022-08-21T06:57:52.518Z,22.96
2022-08-21T06:58:44.421Z,22.95
2022-08-21T06:59:44.353Z,22.93
2022-08-21T07:00:44.320Z,22.84
2022-08-21T07:01:44.398Z,22.80
2022-08-21T07:02:44.234Z,22.86
2022-08-21T07:03:44.199Z,22.61
2022-08-21T07:04:44.184Z,22.51
2022-08-21T07:05:44.117Z,22.61
2022-08-21T07:06:44.086Z,22.58
2022-08-21T07:07:44.040Z,22.62
2022-08-21T07:08:44.037Z,22.58
2022-08-21T07:09:43.966Z,22.65
2022-08-21T07:10:43.922Z,22.62
2022-08-21T07:11:47.562Z,22.67
2022-08-21T07:12:43.843Z,22.62
2022-08-21T07:13:43.803Z,22.78
2022-08-21T07:14:43.792Z,22.81
2022-08-21T07:15:43.726Z,22.78
2022-08-21T07:16:43.701Z,22.81
2022-08-21T07:17:43.650Z,22.73
2022-08-21T07:18:43.616Z,22.80
2022-08-21T07:19:43.574Z,22.77
2022-08-21T07:20:43.553Z,22.62
2022-08-21T07:21:43.496Z,22.62
2022-08-21T07:22:43.453Z,22.70
2022-08-21T07:23:43.417Z,22.73
2022-08-21T07:24:43.373Z,22.62
2022-08-21T07:25:43.341Z,22.59
2022-08-21T07:26:43.314Z,22.55
2022-08-21T07:27:43.261Z,22.63
2022-08-21T07:28:43.221Z,22.71
2022-08-21T07:29:43.197Z,22.81
2022-08-21T07:30:43.143Z,22.88
2022-08-21T07:31:43.101Z,22.84
2022-08-21T07:32:43.064Z,22.91
2022-08-21T07:33:43.031Z,22.88
2022-08-21T07:34:42.983Z,22.88
2022-08-21T07:35:42.961Z,22.89
2022-08-21T07:36:42.932Z,22.80
2022-08-21T07:37:42.872Z,22.83
2022-08-21T07:38:42.843Z,22.88
2022-08-21T07:39:42.876Z,23.02
2022-08-21T07:40:42.754Z,22.95
2022-08-21T07:41:42.713Z,23.01
2022-08-21T07:42:42.691Z,23.10
2022-08-21T07:43:45.973Z,23.08
2022-08-21T07:44:42.594Z,23.07
2022-08-21T07:45:42.555Z,23.07
2022-08-21T07:46:42.522Z,23.23
2022-08-21T07:47:43.110Z,23.28
2022-08-21T07:48:42.457Z,23.29
2022-08-21T07:49:42.421Z,23.36
2022-08-21T07:50:42.363Z,23.34
2022-08-21T07:51:42.326Z,23.32
2022-08-21T07:52:42.291Z,23.49
2022-08-21T07:53:42.248Z,23.45
2022-08-21T07:54:42.208Z,23.54
2022-08-21T07:55:42.202Z,23.51
2022-08-21T07:56:42.134Z,23.49
2022-08-21T07:57:42.094Z,23.32
2022-08-21T07:58:42.055Z,23.39
2022-08-21T07:59:42.021Z,23.48
2022-08-21T08:00:41.981Z,23.52
2022-08-21T08:01:42.064Z,23.51
2022-08-21T08:02:41.936Z,23.48
2022-08-21T08:03:41.863Z,23.56
2022-08-21T08:04:50.573Z,23.58
2022-08-21T08:05:41.787Z,23.58
2022-08-21T08:06:41.754Z,23.56
2022-08-21T08:07:41.709Z,23.56
2022-08-21T08:08:41.811Z,23.54
2022-08-21T08:09:41.630Z,23.51
2022-08-21T08:10:41.591Z,23.52
2022-08-21T08:11:41.555Z,23.51
2022-08-21T08:12:41.520Z,23.51
2022-08-21T08:13:41.478Z,23.39
2022-08-21T08:14:41.452Z,23.34
2022-08-21T08:15:41.402Z,23.47
2022-08-21T08:16:41.358Z,23.49
2022-08-21T08:17:41.321Z,23.44
2022-08-21T08:18:41.282Z,23.54
2022-08-21T08:19:41.263Z,23.49
2022-08-21T08:20:41.204Z,23.63
2022-08-21T08:21:41.166Z,23.63
2022-08-21T08:22:41.128Z,23.52
2022-08-21T08:23:41.090Z,23.55
2022-08-21T08:24:41.053Z,23.59
2022-08-21T08:25:41.026Z,23.74
2022-08-21T08:26:40.974Z,23.84
2022-08-21T08:27:40.943Z,23.82
2022-08-21T08:28:40.899Z,23.91
2022-08-21T08:29:40.861Z,23.96
2022-08-21T08:30:40.825Z,24.00
2022-08-21T08:31:40.804Z,24.18
2022-08-21T08:32:40.747Z,24.25
2022-08-21T08:33:40.712Z,24.34
2022-08-21T08:34:40.667Z,24.46
2022-08-21T08:35:40.639Z,24.65
2022-08-21T08:36:40.606Z,24.77
2022-08-21T08:37:40.764Z,24.85
2022-08-21T08:38:40.520Z,25.09
2022-08-21T08:39:40.507Z,25.24
2022-08-21T08:40:43.011Z,25.49
2022-08-21T08:41:40.402Z,25.59
2022-08-21T08:42:40.372Z,25.74
2022-08-21T08:43:40.363Z,25.91
2022-08-21T08:44:40.296Z,26.06
2022-08-21T08:45:40.254Z,26.15
2022-08-21T08:46:40.219Z,26.16
2022-08-21T08:47:40.185Z,26.34
2022-08-21T08:48:40.143Z,26.59
2022-08-21T08:49:40.289Z,26.63
2022-08-21T08:50:40.070Z,26.86
2022-08-21T08:51:40.040Z,26.97
2022-08-21T08:52:39.998Z,27.07
2022-08-21T08:53:39.964Z,27.03
2022-08-21T08:54:39.927Z,27.19
2022-08-21T08:55:39.923Z,27.37
2022-08-21T08:56:39.859Z,27.52
2022-08-21T08:57:39.821Z,27.82
2022-08-21T08:58:39.784Z,28.15
2022-08-21T08:59:39.748Z,28.15
2022-08-21T09:00:39.720Z,28.33
2022-08-21T09:01:39.858Z,28.45
2022-08-21T09:02:40.289Z,28.71
2022-08-21T09:03:39.606Z,29.12
2022-08-21T09:04:39.572Z,29.50
2022-08-21T09:05:39.534Z,29.99
2022-08-21T09:06:39.506Z,30.27
2022-08-21T09:07:39.647Z,30.83
2022-08-21T09:08:39.434Z,31.11
2022-08-21T09:09:39.399Z,31.36
2022-08-21T09:10:39.366Z,31.54
2022-08-21T09:11:39.331Z,31.48
2022-08-21T09:12:39.301Z,31.67
2022-08-21T09:13:39.287Z,32.00
2022-08-21T09:14:39.234Z,32.38
2022-08-21T09:15:39.198Z,32.76
2022-08-21T09:16:39.167Z,32.91
2022-08-21T09:17:39.137Z,33.01
2022-08-21T09:18:39.113Z,33.05
2022-08-21T09:19:39.069Z,32.91
2022-08-21T09:20:39.035Z,32.81
2022-08-21T09:21:39.003Z,32.56
2022-08-21T09:22:38.972Z,32.38
2022-08-21T09:23:38.964Z,32.39
2022-08-21T09:24:38.907Z,32.31
2022-08-21T09:25:38.874Z,32.15
2022-08-21T09:26:38.847Z,32.08
2022-08-21T09:27:38.816Z,31.93
2022-08-21T09:28:38.782Z,31.70
2022-08-21T09:29:38.776Z,31.60
2022-08-21T09:30:38.716Z,31.77
2022-08-21T09:31:38.686Z,31.72
2022-08-21T09:32:38.675Z,31.67
2022-08-21T09:33:38.614Z,31.87
2022-08-21T09:34:38.586Z,32.01
2022-08-21T09:35:38.569Z,32.38
2022-08-21T09:36:38.517Z,32.82
2022-08-21T09:37:38.485Z,33.09
2022-08-21T09:38:38.458Z,33.28
2022-08-21T09:39:40.130Z,33.66
2022-08-21T09:40:38.487Z,33.66
2022-08-21T09:41:38.390Z,33.67
2022-08-21T09:42:38.329Z,33.98
2022-08-21T09:43:38.303Z,34.51
2022-08-21T09:44:38.272Z,34.60
2022-08-21T09:45:38.245Z,34.76
2022-08-21T09:46:38.207Z,34.83
2022-08-21T09:47:38.198Z,35.32
2022-08-21T09:48:38.144Z,35.81
2022-08-21T09:49:38.117Z,36.33
2022-08-21T09:50:38.090Z,36.96
2022-08-21T09:51:38.054Z,37.58
2022-08-21T09:52:38.035Z,37.83
2022-08-21T09:53:38.020Z,38.27
2022-08-21T09:54:37.967Z,38.60
2022-08-21T09:55:37.940Z,38.63
2022-08-21T09:56:37.918Z,38.77
2022-08-21T09:57:37.885Z,38.96
2022-08-21T09:58:37.860Z,39.19
2022-08-21T09:59:38.019Z,39.19
2022-08-21T10:00:37.875Z,39.38
2022-08-21T10:01:37.778Z,39.60
2022-08-21T10:02:37.746Z,39.61
2022-08-21T10:03:37.719Z,39.83
2022-08-21T10:04:37.692Z,39.79
2022-08-21T10:05:37.680Z,39.75
2022-08-21T10:06:37.637Z,39.83
2022-08-21T10:07:37.610Z,40.16
2022-08-21T10:08:37.592Z,40.54
2022-08-21T10:09:37.560Z,40.78
2022-08-21T10:10:37.541Z,40.92
2022-08-21T10:11:37.505Z,41.05
2022-08-21T10:12:37.479Z,41.20
2022-08-21T10:13:37.451Z,41.39
2022-08-21T10:14:37.421Z,41.46
2022-08-21T10:15:37.401Z,41.74
2022-08-21T10:16:37.393Z,41.87
2022-08-21T10:17:37.349Z,42.06
2022-08-21T10:18:37.318Z,42.18
2022-08-21T10:19:37.298Z,42.29
2022-08-21T10:20:37.267Z,42.41
2022-08-21T10:21:37.244Z,42.39
2022-08-21T10:22:37.242Z,42.49
2022-08-21T10:23:37.193Z,42.51
2022-08-21T10:24:37.164Z,42.47
2022-08-21T10:25:37.139Z,42.56
2022-08-21T10:26:37.139Z,42.49
2022-08-21T10:27:37.091Z,42.66
2022-08-21T10:28:37.088Z,42.62
2022-08-21T10:29:37.046Z,42.55
2022-08-21T10:30:37.017Z,42.52
2022-08-21T10:31:36.992Z,42.52
2022-08-21T10:32:36.973Z,42.51
2022-08-21T10:33:36.942Z,42.29
2022-08-21T10:34:36.932Z,42.18
2022-08-21T10:35:36.897Z,42.00
2022-08-21T10:36:36.869Z,41.67
2022-08-21T10:37:36.860Z,41.29
2022-08-21T10:38:52.712Z,40.78
2022-08-21T10:39:36.885Z,40.61
2022-08-21T10:40:36.767Z,40.12
2022-08-21T10:41:36.738Z,39.66
2022-08-21T10:44:08.733Z,38.10
2022-08-21T10:45:08.718Z,37.60
2022-08-21T10:46:08.669Z,37.22
2022-08-21T10:47:08.640Z,36.87
2022-08-21T10:48:08.617Z,36.43
2022-08-21T10:49:08.583Z,36.06
2022-08-21T10:50:08.569Z,35.75
2022-08-21T10:51:08.550Z,35.23
2022-08-21T10:52:08.505Z,34.88
2022-08-21T10:53:08.470Z,34.63
2022-08-21T10:54:08.451Z,34.40
2022-08-21T10:55:08.409Z,34.44
2022-08-21T10:56:08.382Z,34.83
2022-08-21T10:57:08.375Z,35.01
2022-08-21T10:58:08.317Z,34.88
2022-08-21T10:59:08.290Z,34.98
2022-08-21T11:00:08.260Z,35.56
2022-08-21T11:01:08.255Z,35.71
2022-08-21T11:02:08.201Z,35.79
2022-08-21T11:03:08.194Z,35.81
2022-08-21T11:04:08.138Z,36.09
2022-08-21T11:05:08.107Z,36.51
2022-08-21T11:06:08.080Z,37.01
2022-08-21T11:07:08.773Z,37.68
2022-08-21T11:08:08.021Z,38.14
2022-08-21T11:09:08.006Z,38.54
2022-08-21T11:10:07.961Z,38.48
2022-08-21T11:11:08.665Z,38.46
2022-08-21T11:12:11.094Z,38.70
2022-08-21T11:13:07.906Z,39.00
2022-08-21T11:14:07.845Z,39.34
2022-08-21T11:15:07.840Z,39.70
2022-08-21T11:16:07.790Z,39.91
2022-08-21T11:17:07.766Z,39.73
2022-08-21T11:18:07.733Z,39.59
2022-08-21T11:19:07.718Z,39.76
2022-08-21T11:20:07.677Z,39.98
2022-08-21T11:21:07.671Z,40.34
2022-08-21T11:22:07.632Z,40.66
2022-08-21T11:23:07.885Z,41.05
2022-08-21T11:24:07.581Z,41.49
2022-08-21T11:25:07.569Z,41.88
2022-08-21T11:26:07.557Z,41.99
2022-08-21T11:27:07.504Z,42.21
2022-08-21T11:28:09.810Z,42.43
2022-08-21T11:29:07.444Z,42.63
2022-08-21T11:30:07.419Z,42.92
2022-08-21T11:31:07.420Z,43.25
2022-08-21T11:32:07.389Z,43.49
2022-08-21T11:33:07.343Z,43.76
2022-08-21T11:34:07.323Z,43.88
2022-08-21T11:35:07.299Z,44.32
2022-08-21T11:36:07.284Z,44.56
2022-08-21T11:37:07.247Z,44.47
2022-08-21T11:38:07.400Z,44.50
2022-08-21T11:39:07.276Z,44.50
2022-08-21T11:40:07.264Z,44.62
2022-08-21T11:41:07.161Z,44.57
2022-08-21T11:42:08.993Z,44.14
2022-08-21T11:43:07.105Z,43.73
2022-08-21T11:44:07.110Z,42.90
2022-08-21T11:45:07.065Z,42.21
2022-08-21T11:46:07.038Z,41.64
2022-08-21T11:47:07.013Z,41.03
2022-08-21T11:48:06.982Z,40.36
2022-08-21T11:49:06.959Z,39.94
2022-08-21T11:50:34.105Z,39.30
2022-08-21T11:51:06.904Z,38.92
2022-08-21T11:52:06.903Z,38.57
2022-08-21T11:53:06.855Z,38.17
2022-08-21T11:54:07.230Z,37.86
2022-08-21T11:55:06.796Z,37.67
2022-08-21T11:56:06.798Z,37.53
2022-08-21T11:57:06.739Z,37.38
2022-08-21T11:58:06.719Z,37.76
2022-08-21T11:59:06.712Z,38.25
2022-08-21T12:00:06.755Z,38.84
2022-08-21T12:01:06.633Z,39.46
2022-08-21T12:02:06.637Z,40.12
2022-08-21T12:03:06.618Z,40.77
2022-08-21T12:04:06.547Z,41.49
2022-08-21T12:05:09.149Z,42.12
2022-08-21T12:06:06.492Z,42.66
2022-08-21T12:07:06.487Z,43.02
2022-08-21T12:08:06.445Z,43.47
2022-08-21T12:09:06.425Z,43.73
2022-08-21T12:10:06.468Z,43.82
2022-08-21T12:11:06.377Z,44.06
2022-08-21T12:12:06.382Z,44.35
2022-08-21T12:13:06.340Z,44.65
2022-08-21T12:14:06.309Z,44.83
2022-08-21T12:15:06.270Z,44.70
2022-08-21T12:16:06.245Z,44.95
2022-08-21T12:17:06.218Z,45.01
2022-08-21T12:18:06.222Z,45.05
2022-08-21T12:19:06.171Z,45.04
2022-08-21T12:20:06.192Z,45.40
2022-08-21T12:21:06.124Z,45.78
2022-08-21T12:22:06.115Z,45.69
2022-08-21T12:23:06.093Z,45.71
2022-08-21T12:24:06.054Z,45.86
2022-08-21T12:25:06.030Z,45.93
2022-08-21T12:26:06.019Z,45.43
2022-08-21T12:27:05.987Z,45.43
2022-08-21T12:28:06.431Z,45.20
2022-08-21T12:29:05.940Z,45.16
2022-08-21T12:30:05.916Z,45.05
2022-08-21T12:31:05.894Z,45.32
2022-08-21T12:32:05.874Z,45.37
2022-08-21T12:33:05.848Z,45.26
2022-08-21T12:34:05.849Z,44.95
2022-08-21T12:35:05.807Z,44.96
2022-08-21T12:36:05.781Z,44.77
2022-08-21T12:37:05.759Z,44.30
2022-08-21T12:38:05.741Z,43.58
2022-08-21T12:39:05.726Z,42.80
2022-08-21T12:40:05.821Z,42.18
2022-08-21T12:41:05.676Z,41.65
2022-08-21T12:42:05.641Z,41.18
2022-08-21T12:43:05.954Z,40.70
2022-08-21T12:44:05.598Z,40.49
2022-08-21T12:45:05.571Z,40.57
2022-08-21T12:46:05.560Z,40.71
2022-08-21T12:47:05.519Z,40.77
2022-08-21T12:48:05.491Z,41.17
2022-08-21T12:49:05.481Z,41.63
2022-08-21T12:50:05.483Z,42.06
2022-08-21T12:51:05.423Z,42.36
2022-08-21T12:52:05.393Z,42.66
2022-08-21T12:53:05.362Z,43.02
2022-08-21T12:54:05.332Z,43.39
2022-08-21T12:55:05.317Z,43.62
2022-08-21T12:56:05.315Z,43.72
2022-08-21T12:57:05.268Z,43.89